createdAt,value
2022-10-03T00:01:43.462Z,1019.86
2022-10-03T00:08:02.986Z,1019.92
2022-10-03T00:14:26.004Z,1020
2022-10-03T00:20:45.984Z,1020.07
2022-10-03T00:27:09.006Z,1020.15
2022-10-03T00:33:29.013Z,1020.21
2022-10-03T00:39:51.993Z,1020.33
2022-10-03T00:46:12.030Z,1020.41
2022-10-03T00:52:35.087Z,1020.39
2022-10-03T00:58:54.988Z,1020.47
2022-10-03T01:05:17.991Z,1020.49
2022-10-03T01:11:38.420Z,1020.49
2022-10-03T01:18:00.984Z,1020.51
2022-10-03T01:24:21.016Z,1020.49
2022-10-03T01:30:44.000Z,1020.53
2022-10-03T01:37:04.026Z,1020.54
2022-10-03T01:43:26.992Z,1020.53
2022-10-03T01:49:47.003Z,1020.49
2022-10-03T01:56:10.050Z,1020.49
2022-10-03T02:02:30.031Z,1020.53
2022-10-03T02:08:53.047Z,1020.6
2022-10-03T02:15:12.987Z,1020.64
2022-10-03T02:21:36.035Z,1020.72
2022-10-03T02:27:56.037Z,1020.8
2022-10-03T02:34:19.007Z,1020.82
2022-10-03T02:40:39.003Z,1020.82
2022-10-03T02:47:02.027Z,1020.82
2022-10-03T02:53:21.983Z,1020.8
2022-10-03T02:59:45.016Z,1020.78
2022-10-03T03:06:05.022Z,1020.8
2022-10-03T03:12:27.978Z,1020.93
2022-10-03T03:35:43.036Z,1021.08
2022-10-03T03:42:03.010Z,1021.12
2022-10-03T03:48:25.976Z,1021.2
2022-10-03T03:54:46.011Z,1021.2
2022-10-03T04:01:09.081Z,1021.26
2022-10-03T04:07:28.995Z,1021.24
2022-10-03T04:13:52.015Z,1021.26
2022-10-03T04:20:11.975Z,1021.28
2022-10-03T04:26:35.021Z,1021.32
2022-10-03T04:32:54.995Z,1021.39
2022-10-03T04:39:18.001Z,1021.38
2022-10-03T04:45:38.994Z,1021.38
2022-10-03T04:52:02.007Z,1021.41
2022-10-03T04:58:21.966Z,1021.41
2022-10-03T05:04:45.023Z,1021.43
2022-10-03T05:11:05.176Z,1021.41
2022-10-03T05:17:27.994Z,1021.38
2022-10-03T05:23:47.981Z,1021.39
2022-10-03T05:30:11.012Z,1021.43
2022-10-03T05:36:30.988Z,1021.55
2022-10-03T05:42:54.974Z,1021.65
2022-10-03T05:49:14.999Z,1021.69
2022-10-03T05:55:37.992Z,1021.69
2022-10-03T06:01:58.067Z,1021.75
2022-10-03T06:08:21.022Z,1021.79
2022-10-03T06:14:41.012Z,1021.83
2022-10-03T06:21:04.025Z,1021.85
2022-10-03T06:27:24.059Z,1021.88
2022-10-03T06:33:46.984Z,1021.92
2022-10-03T06:40:09.832Z,1021.96
2022-10-03T06:46:30.117Z,1022.04
2022-10-03T06:52:50.015Z,1022.06
2022-10-03T06:59:12.990Z,1022.06
2022-10-03T07:05:34.590Z,1022.1
2022-10-03T07:11:55.975Z,1022.08
2022-10-03T07:18:16.019Z,1022.14
2022-10-03T07:24:39.014Z,1022.12
2022-10-03T07:30:59.035Z,1022.18
2022-10-03T07:37:21.975Z,1022.22
2022-10-03T07:43:42.091Z,1022.26
2022-10-03T07:50:05.003Z,1022.35
2022-10-03T07:56:25.183Z,1022.43
2022-10-03T08:02:48.075Z,1022.53
2022-10-03T08:09:07.997Z,1022.59
2022-10-03T08:15:31.090Z,1022.63
2022-10-03T08:21:51.007Z,1022.61
2022-10-03T08:52:13.006Z,1022.71
2022-10-03T08:58:33.033Z,1022.73
2022-10-03T09:04:56.303Z,1022.73
2022-10-03T09:11:16.327Z,1022.73
2022-10-03T09:17:39.992Z,1022.73
2022-10-03T09:23:59.999Z,1022.73
2022-10-03T09:30:23.070Z,1022.71
2022-10-03T09:36:43.004Z,1022.65
2022-10-03T09:43:06.006Z,1022.61
2022-10-03T09:49:26.016Z,1022.59
2022-10-03T09:55:48.977Z,1022.55
2022-10-03T10:02:09.105Z,1022.49
2022-10-03T10:08:32.048Z,1022.47
2022-10-03T10:14:52.038Z,1022.37
2022-10-03T10:21:15.011Z,1022.3
2022-10-03T10:27:35.026Z,1022.28
2022-10-03T10:33:58.011Z,1022.26
2022-10-03T10:40:17.983Z,1022.24
2022-10-03T10:46:41.316Z,1022.2
2022-10-03T10:53:00.980Z,1022.18
2022-10-03T10:59:23.975Z,1022.2
2022-10-03T11:05:45.019Z,1022.18
2022-10-03T11:12:08.002Z,1022.12
2022-10-03T11:18:27.987Z,1022.04
2022-10-03T11:24:51.006Z,1021.98
2022-10-03T11:31:11.015Z,1021.96
2022-10-03T11:37:33.989Z,1021.9
2022-10-03T11:43:56.354Z,1021.86
2022-10-03T11:50:16.984Z,1021.83
2022-10-03T11:56:37.114Z,1021.81
2022-10-03T12:03:00.291Z,1021.75
2022-10-03T12:09:20.017Z,1021.73
2022-10-03T12:15:42.981Z,1021.69
2022-10-03T12:22:03.007Z,1021.65
2022-10-03T12:28:26.062Z,1021.63
2022-10-03T12:34:45.976Z,1021.63
2022-10-03T12:41:09.015Z,1021.61
2022-10-03T12:47:50.889Z,1021.57
2022-10-03T12:53:51.987Z,1021.57
2022-10-03T13:00:12.044Z,1021.57
2022-10-03T13:07:01.570Z,1021.53
2022-10-03T13:12:54.994Z,1021.51
2022-10-03T13:19:18.057Z,1021.43
2022-10-03T13:25:37.975Z,1021.39
2022-10-03T13:32:00.986Z,1021.41
2022-10-03T13:38:21.002Z,1021.41
2022-10-03T13:44:44.030Z,1021.39
2022-10-03T14:07:29.998Z,1021.2
2022-10-03T14:13:52.985Z,1021.2
2022-10-03T14:20:12.985Z,1021.14
2022-10-03T14:26:36.006Z,1021.06
2022-10-03T14:32:56.046Z,1021.04
2022-10-03T14:39:18.986Z,1020.96
2022-10-03T14:45:39.017Z,1020.96
2022-10-03T14:52:02.003Z,1020.95
2022-10-03T14:58:21.973Z,1020.93
2022-10-03T15:04:45.035Z,1020.93
2022-10-03T15:11:04.977Z,1020.78
2022-10-03T15:17:27.987Z,1020.72
2022-10-03T15:23:48.024Z,1020.64
2022-10-03T15:30:10.998Z,1020.54
2022-10-03T15:36:30.988Z,1020.53
2022-10-03T15:42:53.997Z,1020.45
2022-10-03T15:49:13.991Z,1020.45
2022-10-03T15:55:36.977Z,1020.39
2022-10-03T16:01:57.228Z,1020.37
2022-10-03T16:08:20.247Z,1020.31
2022-10-03T16:14:39.987Z,1020.31
2022-10-03T16:21:03.004Z,1020.29
2022-10-03T16:27:22.984Z,1020.29
2022-10-03T16:33:46.036Z,1020.25
2022-10-03T16:40:06.027Z,1020.21
2022-10-03T16:46:28.985Z,1020.19
2022-10-03T16:52:49.002Z,1020.09
2022-10-03T16:59:12.012Z,1020.09
2022-10-03T17:05:31.973Z,1020.06
2022-10-03T17:11:55.004Z,1020.04
2022-10-03T17:18:15.012Z,1020.04
2022-10-03T17:24:37.990Z,1020.04
2022-10-03T17:30:57.977Z,1020.02
2022-10-03T17:37:21.033Z,1020.04
2022-10-03T17:43:40.977Z,1020.04
2022-10-03T17:50:03.977Z,1019.98
2022-10-03T17:56:24.035Z,1020.02
2022-10-03T18:02:46.979Z,1020.02
2022-10-03T18:09:07.019Z,1020.02
2022-10-03T18:15:30.029Z,1020
2022-10-03T18:21:49.973Z,1019.98
2022-10-03T18:28:13.305Z,1019.88
2022-10-03T18:34:33.020Z,1019.9
2022-10-03T18:40:55.991Z,1019.88
2022-10-03T18:47:15.974Z,1019.88
2022-10-03T18:53:38.997Z,1019.84
2022-10-03T19:17:19.996Z,1019.72
2022-10-03T19:23:39.989Z,1019.7
2022-10-03T19:30:03.007Z,1019.74
2022-10-03T19:36:23.115Z,1019.78
2022-10-03T19:42:45.983Z,1019.76
2022-10-03T19:49:05.986Z,1019.76
2022-10-03T19:55:28.995Z,1019.88
2022-10-03T20:01:49.404Z,1019.96
2022-10-03T20:08:11.978Z,1019.92
2022-10-03T20:14:31.993Z,1019.9
2022-10-03T20:20:54.978Z,1019.82
2022-10-03T20:27:15.082Z,1019.84
2022-10-03T20:33:38.013Z,1019.8
2022-10-03T20:39:57.984Z,1019.84
2022-10-03T20:46:21.050Z,1019.94
2022-10-03T20:52:41.046Z,1019.96
2022-10-03T20:59:03.968Z,1019.92
2022-10-03T21:05:23.983Z,1019.86
2022-10-03T21:11:49.213Z,1019.86
2022-10-03T21:18:06.974Z,1019.84
2022-10-03T21:24:30.034Z,1019.82
2022-10-03T21:30:50.002Z,1019.78
2022-10-03T21:37:13.002Z,1019.72
2022-10-03T21:43:33.278Z,1019.74
2022-10-03T21:49:56.033Z,1019.68
2022-10-03T21:56:15.996Z,1019.6
2022-10-03T22:20:33.005Z,1019.51
2022-10-03T22:26:52.997Z,1019.45
2022-10-03T22:33:16.007Z,1019.35
2022-10-03T22:39:36.000Z,1019.33
2022-10-03T22:45:59.039Z,1019.29
2022-10-03T22:52:18.991Z,1019.37
2022-10-03T22:58:42.216Z,1019.39
2022-10-03T23:05:02.012Z,1019.37
2022-10-03T23:11:25.032Z,1019.37
2022-10-03T23:17:45.028Z,1019.37
2022-10-03T23:24:08.008Z,1019.33
2022-10-03T23:30:27.986Z,1019.29
2022-10-03T23:36:51.046Z,1019.17
2022-10-03T23:43:10.990Z,1019.08
2022-10-03T23:49:33.986Z,1018.98
2022-10-03T23:55:54.000Z,1018.92
